createdAt,value
2018-06-06T00:00:44.611Z,0.00
2018-06-06T00:01:44.616Z,0.00
2018-06-06T00:03:39.111Z,0.00
2018-06-06T00:04:39.107Z,0.00
2018-06-06T00:06:32.039Z,0.00
2018-06-06T00:07:32.063Z,0.00
2018-06-06T00:09:25.010Z,0.00
2018-06-06T00:10:25.018Z,0.00
2018-06-06T00:12:17.956Z,0.00
2018-06-06T00:13:17.973Z,0.00
2018-06-06T00:15:10.922Z,0.00
2018-06-06T00:16:10.928Z,0.00
2018-06-06T00:18:04.372Z,0.00
2018-06-06T00:19:04.390Z,0.00
2018-06-06T00:20:57.336Z,0.00
2018-06-06T00:21:57.343Z,0.00
2018-06-06T00:23:50.298Z,0.00
2018-06-06T00:24:50.299Z,0.00
2018-06-06T00:26:43.234Z,0.00
2018-06-06T00:27:43.251Z,0.00
2018-06-06T00:29:36.201Z,0.00
2018-06-06T00:30:36.205Z,0.00
2018-06-06T00:32:29.653Z,0.00
2018-06-06T00:33:29.675Z,0.00
2018-06-06T00:35:22.620Z,0.00
2018-06-06T00:36:22.625Z,0.00
2018-06-06T00:38:15.566Z,0.00
2018-06-06T00:39:15.580Z,0.00
2018-06-06T00:41:08.530Z,0.00
2018-06-06T00:42:08.533Z,0.00
2018-06-06T00:44:01.498Z,0.00
2018-06-06T00:45:01.490Z,0.00
2018-06-06T00:46:54.417Z,0.00
2018-06-06T00:47:54.442Z,0.00
2018-06-06T00:49:47.391Z,0.00
2018-06-06T00:50:47.396Z,0.00
2018-06-06T00:52:40.348Z,0.00
2018-06-06T00:53:40.350Z,0.00
2018-06-06T00:55:33.302Z,0.00
2018-06-06T00:56:33.304Z,0.00
2018-06-06T00:58:26.237Z,0.00
2018-06-06T00:59:26.258Z,0.00
2018-06-06T01:01:19.209Z,0.00
2018-06-06T01:02:19.212Z,0.00
2018-06-06T01:04:12.145Z,0.00
2018-06-06T01:05:12.170Z,0.00
2018-06-06T01:07:05.117Z,0.00
2018-06-06T01:08:05.122Z,0.00
2018-06-06T01:09:58.070Z,0.00
2018-06-06T01:10:58.077Z,0.00
2018-06-06T01:12:51.008Z,0.00
2018-06-06T01:13:51.058Z,0.00
2018-06-06T01:15:43.980Z,0.00
2018-06-06T01:16:43.983Z,0.00
2018-06-06T01:18:36.916Z,0.00
2018-06-06T01:19:36.937Z,0.00
2018-06-06T01:21:29.886Z,0.00
2018-06-06T01:22:29.890Z,0.00
2018-06-06T01:24:22.824Z,0.00
2018-06-06T01:25:22.848Z,0.00
2018-06-06T01:27:15.803Z,0.00
2018-06-06T01:28:15.804Z,0.00
2018-06-06T01:30:08.732Z,0.00
2018-06-06T01:31:08.754Z,0.00
2018-06-06T01:33:01.704Z,0.00
2018-06-06T01:34:01.711Z,0.00
2018-06-06T01:35:54.658Z,0.00
2018-06-06T01:36:54.662Z,0.00
2018-06-06T01:38:48.104Z,0.00
2018-06-06T01:39:48.128Z,0.00
2018-06-06T01:41:41.077Z,0.00
2018-06-06T01:42:41.081Z,0.00
2018-06-06T01:44:34.015Z,0.00
2018-06-06T01:45:34.037Z,0.00
2018-06-06T01:47:26.987Z,0.00
2018-06-06T01:48:26.993Z,0.00
2018-06-06T01:50:19.922Z,0.00
2018-06-06T01:51:19.944Z,0.00
2018-06-06T01:53:12.898Z,0.00
2018-06-06T01:54:12.899Z,0.00
2018-06-06T01:56:05.848Z,0.00
2018-06-06T01:57:05.852Z,0.00
2018-06-06T01:58:58.785Z,0.00
2018-06-06T01:59:58.810Z,0.00
2018-06-06T02:01:51.755Z,0.00
2018-06-06T02:02:51.760Z,0.00
2018-06-06T02:04:44.692Z,0.00
2018-06-06T02:05:44.715Z,0.00
2018-06-06T02:07:37.661Z,0.00
2018-06-06T02:08:37.668Z,0.00
2018-06-06T02:10:30.600Z,0.00
2018-06-06T02:11:30.624Z,0.00
2018-06-06T02:13:23.572Z,0.00
2018-06-06T02:14:23.576Z,0.00
2018-06-06T02:16:16.508Z,0.00
2018-06-06T02:17:16.532Z,0.00
2018-06-06T02:19:12.551Z,0.00
2018-06-06T02:20:12.557Z,4.00
2018-06-06T02:22:06.017Z,4.00
2018-06-06T02:23:06.022Z,0.00
2018-06-06T02:24:58.955Z,4.00
2018-06-06T02:25:58.981Z,4.00
2018-06-06T02:27:51.927Z,4.00
2018-06-06T02:28:51.933Z,4.00
2018-06-06T02:30:44.865Z,4.00
2018-06-06T02:31:44.888Z,4.00
2018-06-06T02:33:37.836Z,8.00
2018-06-06T02:34:37.839Z,8.00
2018-06-06T02:36:31.282Z,12.00
2018-06-06T02:37:31.305Z,8.00
2018-06-06T02:39:24.255Z,12.00
2018-06-06T02:40:24.260Z,16.00
2018-06-06T02:42:17.705Z,16.00
2018-06-06T02:43:17.725Z,24.00
2018-06-06T02:45:10.677Z,24.00
2018-06-06T02:46:10.682Z,28.00
2018-06-06T02:48:04.141Z,36.00
2018-06-06T02:49:04.146Z,40.00
2018-06-06T02:50:57.077Z,52.00
2018-06-06T02:51:57.100Z,56.00
2018-06-06T02:53:50.049Z,64.00
2018-06-06T02:54:50.055Z,72.00
2018-06-06T02:56:42.985Z,88.00
2018-06-06T02:57:43.008Z,96.00
2018-06-06T02:59:35.959Z,112.00
2018-06-06T03:00:35.963Z,124.00
2018-06-06T03:02:28.895Z,144.00
2018-06-06T03:03:28.919Z,156.00
2018-06-06T03:05:23.410Z,184.00
2018-06-06T03:06:23.407Z,200.00
2018-06-06T03:08:16.360Z,228.00
2018-06-06T03:09:16.362Z,240.00
2018-06-06T03:11:09.300Z,276.00
2018-06-06T03:12:09.315Z,296.00
2018-06-06T03:14:02.265Z,332.00
2018-06-06T03:15:02.270Z,352.00
2018-06-06T03:16:55.200Z,400.00
2018-06-06T03:17:55.224Z,424.00
2018-06-06T03:19:49.710Z,472.00
2018-06-06T03:20:49.715Z,500.00
2018-06-06T03:22:42.646Z,548.00
2018-06-06T03:23:42.668Z,576.00
2018-06-06T03:25:36.131Z,636.00
2018-06-06T03:26:36.133Z,676.00
2018-06-06T03:28:29.083Z,744.00
2018-06-06T03:29:29.087Z,788.00
2018-06-06T03:31:22.533Z,864.00
2018-06-06T03:32:22.554Z,908.00
2018-06-06T03:34:15.506Z,988.00
2018-06-06T03:35:15.509Z,1040.00
2018-06-06T03:37:08.439Z,1132.00
2018-06-06T03:38:08.463Z,1180.00
2018-06-06T03:40:01.412Z,1276.00
2018-06-06T03:41:01.418Z,1328.00
2018-06-06T03:42:54.347Z,1480.00
2018-06-06T03:43:54.372Z,1604.00
2018-06-06T03:45:47.831Z,1776.00
2018-06-06T03:46:47.875Z,1868.00
2018-06-06T03:48:40.767Z,2044.00
2018-06-06T03:49:40.791Z,2136.00
2018-06-06T03:51:33.741Z,2292.00
2018-06-06T03:52:33.746Z,2380.00
2018-06-06T03:54:26.699Z,2548.00
2018-06-06T03:55:26.706Z,2640.00
2018-06-06T03:57:19.630Z,2828.00
2018-06-06T03:58:19.656Z,2924.00
2018-06-06T04:00:13.167Z,3112.00
2018-06-06T04:01:13.121Z,3216.00
2018-06-06T04:03:06.053Z,3424.00
2018-06-06T04:04:06.080Z,3524.00
2018-06-06T04:05:59.538Z,3376.00
2018-06-06T04:06:59.546Z,4012.00
2018-06-06T04:08:52.472Z,4132.00
2018-06-06T04:09:52.498Z,3676.00
2018-06-06T04:11:45.516Z,3600.00
2018-06-06T04:12:45.453Z,4616.00
2018-06-06T04:14:38.928Z,4588.00
2018-06-06T04:15:38.923Z,4732.00
2018-06-06T04:17:31.879Z,5008.00
2018-06-06T04:18:31.871Z,5196.00
2018-06-06T04:20:26.420Z,5492.00
2018-06-06T04:21:26.364Z,5640.00
2018-06-06T04:23:19.292Z,5932.00
2018-06-06T04:24:19.318Z,6104.00
2018-06-06T04:26:12.265Z,6444.00
2018-06-06T04:27:12.289Z,6640.00
2018-06-06T04:29:05.199Z,7004.00
2018-06-06T04:30:05.230Z,7236.00
2018-06-06T04:31:58.367Z,7940.00
2018-06-06T04:32:58.185Z,8592.00
2018-06-06T04:34:51.111Z,10356.00
2018-06-06T04:35:51.141Z,10656.00
2018-06-06T04:37:44.186Z,9936.00
2018-06-06T04:38:44.198Z,9952.00
2018-06-06T04:40:37.253Z,9640.00
2018-06-06T04:41:37.252Z,9492.00
2018-06-06T04:43:30.280Z,9412.00
2018-06-06T04:44:30.308Z,9460.00
2018-06-06T04:46:23.800Z,9552.00
2018-06-06T04:47:23.774Z,9468.00
2018-06-06T04:49:16.806Z,9800.00
2018-06-06T04:50:16.831Z,10024.00
2018-06-06T04:52:09.879Z,10168.00
2018-06-06T04:53:09.888Z,10392.00
2018-06-06T04:55:02.926Z,10572.00
2018-06-06T04:56:02.956Z,10560.00
2018-06-06T04:57:55.990Z,10732.00
2018-06-06T04:58:56.003Z,10872.00
2018-06-06T05:00:49.030Z,10952.00
2018-06-06T05:01:49.058Z,10948.00
2018-06-06T05:03:42.103Z,11344.00
2018-06-06T05:04:42.115Z,11484.00
2018-06-06T05:06:36.611Z,11500.00
2018-06-06T05:07:36.605Z,11776.00
2018-06-06T05:09:29.633Z,11988.00
2018-06-06T05:10:29.666Z,12232.00
2018-06-06T05:12:22.707Z,12984.00
2018-06-06T05:13:22.721Z,13324.00
2018-06-06T05:15:15.747Z,14368.00
2018-06-06T05:16:15.778Z,14336.00
2018-06-06T05:18:08.820Z,13776.00
2018-06-06T05:19:08.833Z,14432.00
2018-06-06T05:21:01.906Z,15904.00
2018-06-06T05:22:01.891Z,17024.00
2018-06-06T05:23:54.933Z,18368.00
2018-06-06T05:24:54.947Z,18688.00
2018-06-06T05:26:47.995Z,19520.00
2018-06-06T05:27:48.003Z,19424.00
2018-06-06T05:29:41.970Z,20672.00
2018-06-06T05:30:41.983Z,20480.00
2018-06-06T05:32:35.082Z,20384.00
2018-06-06T05:33:35.039Z,20480.00
2018-06-06T05:35:28.081Z,19712.00
2018-06-06T05:36:28.096Z,20288.00
2018-06-06T05:38:21.140Z,21760.00
2018-06-06T05:39:21.152Z,22368.00
2018-06-06T05:41:14.177Z,21792.00
2018-06-06T05:42:14.209Z,22464.00
2018-06-06T05:44:07.251Z,23552.00
2018-06-06T05:45:07.267Z,23328.00
2018-06-06T05:47:00.289Z,23584.00
2018-06-06T05:48:00.324Z,23872.00
2018-06-06T05:49:53.364Z,24544.00
2018-06-06T05:50:53.380Z,24448.00
2018-06-06T05:52:46.403Z,24448.00
2018-06-06T05:53:46.437Z,23648.00
2018-06-06T05:55:39.481Z,24896.00
2018-06-06T05:56:39.503Z,25504.00
2018-06-06T05:58:32.535Z,25792.00
2018-06-06T05:59:32.554Z,25632.00
2018-06-06T06:01:26.087Z,26240.00
2018-06-06T06:02:26.119Z,26976.00
2018-06-06T06:04:19.161Z,27648.00
2018-06-06T06:05:19.179Z,27840.00
2018-06-06T06:07:12.111Z,27296.00
2018-06-06T06:08:12.143Z,27200.00
2018-06-06T06:10:05.683Z,27456.00
2018-06-06T06:11:05.698Z,27296.00
2018-06-06T06:12:58.725Z,27168.00
2018-06-06T06:13:58.759Z,27968.00
2018-06-06T06:15:51.796Z,29280.00
2018-06-06T06:16:51.811Z,29216.00
2018-06-06T06:18:44.857Z,30048.00
2018-06-06T06:19:44.870Z,30048.00
2018-06-06T06:21:37.804Z,29792.00
2018-06-06T06:22:37.840Z,30208.00
2018-06-06T06:24:30.868Z,31264.00
2018-06-06T06:25:30.883Z,32352.00
2018-06-06T06:27:23.903Z,31200.00
2018-06-06T06:28:23.938Z,31264.00
2018-06-06T06:30:17.028Z,31328.00
2018-06-06T06:31:16.992Z,31872.00
2018-06-06T06:33:10.019Z,34368.00
2018-06-06T06:34:10.050Z,35424.00
2018-06-06T06:36:13.050Z,40576.00
2018-06-06T06:37:13.063Z,43520.00
2018-06-06T06:39:06.020Z,57216.00
2018-06-06T06:40:06.036Z,60192.00
2018-06-06T06:41:58.967Z,48000.00
2018-06-06T06:42:59.002Z,41248.00
2018-06-06T06:44:51.958Z,36640.00
2018-06-06T06:45:51.970Z,36320.00
2018-06-06T06:47:44.907Z,35232.00
2018-06-06T06:48:44.936Z,39136.00
2018-06-06T06:50:37.896Z,47648.00
2018-06-06T06:51:37.906Z,47104.00
2018-06-06T06:53:30.840Z,50816.00
2018-06-06T06:54:30.875Z,51200.00
2018-06-06T06:56:23.833Z,47808.00
2018-06-06T06:57:23.847Z,48384.00
2018-06-06T06:59:16.781Z,45504.00
2018-06-06T07:00:16.814Z,44576.00
2018-06-06T07:02:09.775Z,43808.00
2018-06-06T07:03:09.789Z,42080.00
2018-06-06T07:05:02.750Z,43840.00
2018-06-06T07:06:02.764Z,43968.00
2018-06-06T07:07:55.705Z,39616.00
2018-06-06T07:08:55.736Z,40672.00
2018-06-06T07:10:48.697Z,41920.00
2018-06-06T07:11:48.710Z,41184.00
2018-06-06T07:13:41.649Z,40800.00
2018-06-06T07:14:41.684Z,42528.00
2018-06-06T07:16:34.642Z,41216.00
2018-06-06T07:17:34.660Z,43584.00
2018-06-06T07:19:27.598Z,45504.00
2018-06-06T07:20:27.634Z,45696.00
2018-06-06T07:22:20.590Z,20000.00
2018-06-06T07:23:20.604Z,8904.00
2018-06-06T07:25:13.563Z,7640.00
2018-06-06T07:26:13.575Z,7472.00
2018-06-06T07:28:06.521Z,7456.00
2018-06-06T07:29:06.546Z,7532.00
2018-06-06T07:30:59.509Z,7580.00
2018-06-06T07:31:59.527Z,7576.00
2018-06-06T07:33:52.450Z,7532.00
2018-06-06T07:34:52.485Z,7556.00
2018-06-06T07:36:45.440Z,7616.00
2018-06-06T07:37:45.447Z,7616.00
2018-06-06T07:39:38.434Z,7532.00
2018-06-06T07:40:38.411Z,7480.00
2018-06-06T07:42:31.359Z,7276.00
2018-06-06T07:43:31.366Z,7228.00
2018-06-06T07:45:24.549Z,7204.00
2018-06-06T07:46:24.323Z,7216.00
2018-06-06T07:48:17.269Z,7100.00
2018-06-06T07:49:17.279Z,7076.00
2018-06-06T07:51:10.718Z,7028.00
2018-06-06T07:52:10.730Z,7056.00
2018-06-06T07:54:03.661Z,7120.00
2018-06-06T07:55:03.693Z,7020.00
2018-06-06T07:56:56.646Z,6920.00
2018-06-06T07:57:56.648Z,6864.00
2018-06-06T07:59:49.576Z,6824.00
2018-06-06T08:00:49.606Z,6796.00
2018-06-06T08:02:42.557Z,6700.00
2018-06-06T08:03:42.561Z,6672.00
2018-06-06T08:05:35.486Z,6628.00
2018-06-06T08:06:35.518Z,6616.00
2018-06-06T08:08:28.460Z,6636.00
2018-06-06T08:09:28.469Z,6572.00
2018-06-06T08:11:21.422Z,6552.00
2018-06-06T08:12:21.420Z,6508.00
2018-06-06T08:14:14.384Z,6528.00
2018-06-06T08:15:14.376Z,6520.00
2018-06-06T08:17:07.456Z,6500.00
2018-06-06T08:18:07.472Z,6400.00
2018-06-06T08:20:00.390Z,6428.00
2018-06-06T08:21:00.420Z,6436.00
2018-06-06T08:22:53.371Z,6504.00
2018-06-06T08:23:53.373Z,6516.00
2018-06-06T08:25:46.300Z,6532.00
2018-06-06T08:26:46.328Z,6552.00
2018-06-06T08:28:39.271Z,6612.00
2018-06-06T08:29:39.281Z,6640.00
2018-06-06T08:31:32.219Z,6640.00
2018-06-06T08:32:32.237Z,6700.00
2018-06-06T08:34:25.184Z,6944.00
2018-06-06T08:35:25.189Z,7080.00
2018-06-06T08:37:18.136Z,7744.00
2018-06-06T08:38:18.146Z,8040.00
2018-06-06T08:40:11.069Z,7652.00
2018-06-06T08:41:11.098Z,7828.00
2018-06-06T08:43:04.041Z,7860.00
2018-06-06T08:44:04.051Z,7444.00
2018-06-06T08:46:04.328Z,7712.00
2018-06-06T08:46:57.211Z,7840.00
2018-06-06T08:48:50.154Z,7724.00
2018-06-06T08:49:50.163Z,7988.00
2018-06-06T08:51:43.090Z,8804.00
2018-06-06T08:52:43.121Z,8940.00
2018-06-06T08:54:36.274Z,7952.00
2018-06-06T08:55:36.284Z,7500.00
2018-06-06T08:57:29.210Z,7340.00
2018-06-06T08:58:29.240Z,7384.00
2018-06-06T09:00:22.190Z,7848.00
2018-06-06T09:01:22.197Z,8180.00
2018-06-06T09:03:15.138Z,8788.00
2018-06-06T09:04:15.149Z,9056.00
2018-06-06T09:06:08.075Z,8916.00
2018-06-06T09:07:08.101Z,8952.00
2018-06-06T09:09:01.051Z,8968.00
2018-06-06T09:10:01.058Z,8872.00
2018-06-06T09:11:54.007Z,8604.00
2018-06-06T09:12:54.021Z,7092.00
2018-06-06T09:14:46.973Z,6800.00
2018-06-06T09:15:46.980Z,6572.00
2018-06-06T09:17:39.906Z,7712.00
2018-06-06T09:18:39.936Z,7796.00
2018-06-06T09:20:32.886Z,8044.00
2018-06-06T09:21:32.893Z,8076.00
2018-06-06T09:23:25.837Z,7224.00
2018-06-06T09:24:25.847Z,7048.00
2018-06-06T09:26:18.781Z,7716.00
2018-06-06T09:27:18.799Z,7528.00
2018-06-06T09:29:11.744Z,8816.00
2018-06-06T09:30:11.753Z,9472.00
2018-06-06T09:32:04.682Z,9212.00
2018-06-06T09:33:04.708Z,8948.00
2018-06-06T09:34:57.660Z,9036.00
2018-06-06T09:35:57.665Z,9060.00
2018-06-06T09:37:51.583Z,9380.00
2018-06-06T09:38:51.616Z,9780.00
2018-06-06T09:40:44.555Z,10008.00
2018-06-06T09:41:44.565Z,10384.00
2018-06-06T09:43:37.491Z,10116.00
2018-06-06T09:44:37.521Z,9952.00
2018-06-06T09:46:30.471Z,9304.00
2018-06-06T09:47:30.477Z,8236.00
2018-06-06T09:49:23.429Z,6524.00
2018-06-06T09:50:23.434Z,6132.00
2018-06-06T09:52:16.360Z,5864.00
2018-06-06T09:53:16.390Z,5728.00
2018-06-06T09:55:09.367Z,5560.00
2018-06-06T09:56:09.377Z,5480.00
2018-06-06T09:58:02.308Z,5288.00
2018-06-06T09:59:02.344Z,5232.00
2018-06-06T10:00:55.289Z,5120.00
2018-06-06T10:01:55.298Z,5036.00
2018-06-06T10:03:48.226Z,5036.00
2018-06-06T10:04:48.258Z,5036.00
2018-06-06T10:06:41.210Z,5008.00
2018-06-06T10:07:41.217Z,4956.00
2018-06-06T10:09:34.144Z,4864.00
2018-06-06T10:10:34.174Z,4868.00
2018-06-06T10:12:27.120Z,4840.00
2018-06-06T10:13:27.177Z,4792.00
2018-06-06T10:15:20.079Z,4720.00
2018-06-06T10:16:20.086Z,4672.00
2018-06-06T10:18:13.032Z,4676.00
2018-06-06T10:19:13.042Z,4672.00
2018-06-06T10:21:05.987Z,4616.00
2018-06-06T10:22:05.998Z,4604.00
2018-06-06T10:23:58.924Z,4620.00
2018-06-06T10:24:58.954Z,4596.00
2018-06-06T10:26:51.898Z,4484.00
2018-06-06T10:27:51.912Z,4456.00
2018-06-06T10:29:45.333Z,4496.00
2018-06-06T10:30:45.361Z,4512.00
2018-06-06T10:32:38.311Z,4460.00
2018-06-06T10:33:38.321Z,4424.00
2018-06-06T10:35:31.246Z,4476.00
2018-06-06T10:36:31.289Z,4464.00
2018-06-06T10:38:24.226Z,4456.00
2018-06-06T10:39:24.233Z,4444.00
2018-06-06T10:41:17.189Z,4456.00
2018-06-06T10:42:17.190Z,4468.00
2018-06-06T10:44:10.118Z,4532.00
2018-06-06T10:45:10.147Z,4500.00
2018-06-06T10:47:03.093Z,4424.00
2018-06-06T10:48:03.104Z,4384.00
2018-06-06T10:49:56.030Z,4412.00
2018-06-06T10:50:56.065Z,4464.00
2018-06-06T10:52:49.046Z,4704.00
2018-06-06T10:53:49.016Z,4768.00
2018-06-06T10:55:41.946Z,4712.00
2018-06-06T10:56:41.975Z,4796.00
2018-06-06T10:58:34.917Z,5068.00
2018-06-06T10:59:34.973Z,5064.00
2018-06-06T11:01:27.858Z,4752.00
2018-06-06T11:02:27.888Z,4572.00
2018-06-06T11:04:20.836Z,4400.00
2018-06-06T11:05:20.843Z,4344.00
2018-06-06T11:07:13.788Z,4228.00
2018-06-06T11:08:13.799Z,4216.00
2018-06-06T11:10:06.724Z,4228.00
2018-06-06T11:11:06.752Z,4284.00
2018-06-06T11:12:59.729Z,4384.00
2018-06-06T11:13:59.716Z,4504.00
2018-06-06T11:15:52.640Z,4508.00
2018-06-06T11:16:52.700Z,4440.00
2018-06-06T11:18:46.609Z,4340.00
2018-06-06T11:19:46.625Z,4352.00
2018-06-06T11:21:39.552Z,4144.00
2018-06-06T11:22:39.581Z,4128.00
2018-06-06T11:24:33.020Z,4640.00
2018-06-06T11:25:33.033Z,4752.00
2018-06-06T11:27:25.957Z,4908.00
2018-06-06T11:28:25.990Z,4880.00
2018-06-06T11:30:18.939Z,4732.00
2018-06-06T11:31:18.946Z,4684.00
2018-06-06T11:33:11.898Z,4560.00
2018-06-06T11:34:11.904Z,4544.00
2018-06-06T11:36:04.831Z,4500.00
2018-06-06T11:37:04.863Z,4444.00
2018-06-06T11:38:57.813Z,4396.00
2018-06-06T11:39:57.825Z,4452.00
2018-06-06T11:41:50.753Z,4612.00
2018-06-06T11:42:50.783Z,4660.00
2018-06-06T11:44:43.730Z,4464.00
2018-06-06T11:45:43.737Z,4512.00
2018-06-06T11:47:37.174Z,4468.00
2018-06-06T11:48:37.205Z,4408.00
2018-06-06T11:50:30.641Z,4236.00
2018-06-06T11:51:30.653Z,4420.00
2018-06-06T11:53:23.602Z,4560.00
2018-06-06T11:54:23.612Z,4540.00
2018-06-06T11:56:16.545Z,4472.00
2018-06-06T11:57:16.572Z,4544.00
2018-06-06T11:59:09.522Z,4580.00
2018-06-06T12:00:09.533Z,4552.00
2018-06-06T12:02:02.954Z,4444.00
2018-06-06T12:03:02.987Z,4400.00
2018-06-06T12:04:55.936Z,4440.00
2018-06-06T12:05:55.945Z,4416.00
2018-06-06T12:07:48.878Z,4320.00
2018-06-06T12:08:48.906Z,4216.00
2018-06-06T12:10:41.865Z,4136.00
2018-06-06T12:11:41.882Z,4100.00
2018-06-06T12:13:34.798Z,4040.00
2018-06-06T12:14:34.830Z,4020.00
2018-06-06T12:16:27.779Z,4016.00
2018-06-06T12:17:27.791Z,4024.00
2018-06-06T12:19:20.751Z,4092.00
2018-06-06T12:20:20.771Z,4048.00
2018-06-06T12:22:13.678Z,4032.00
2018-06-06T12:23:13.706Z,4024.00
2018-06-06T12:25:07.149Z,3996.00
2018-06-06T12:26:07.161Z,4008.00
2018-06-06T12:28:00.090Z,4076.00
2018-06-06T12:29:00.119Z,4120.00
2018-06-06T12:30:53.074Z,4096.00
2018-06-06T12:31:53.151Z,4080.00
2018-06-06T12:33:46.070Z,4316.00
2018-06-06T12:34:46.102Z,4412.00
2018-06-06T12:36:39.154Z,4888.00
2018-06-06T12:37:39.162Z,5476.00
2018-06-06T12:39:32.221Z,5324.00
2018-06-06T12:40:32.219Z,5084.00
2018-06-06T12:42:28.142Z,4384.00
2018-06-06T12:43:28.171Z,4096.00
2018-06-06T12:45:21.198Z,4200.00
2018-06-06T12:46:21.210Z,4148.00
2018-06-06T12:48:14.228Z,4076.00
2018-06-06T12:49:14.255Z,4036.00
2018-06-06T12:51:07.246Z,3996.00
2018-06-06T12:52:07.214Z,3916.00
2018-06-06T12:54:00.283Z,4016.00
2018-06-06T12:55:00.268Z,4084.00
2018-06-06T12:56:53.216Z,4136.00
2018-06-06T12:57:53.231Z,4064.00
2018-06-06T12:59:46.182Z,3964.00
2018-06-06T13:00:46.202Z,3976.00
2018-06-06T13:02:39.148Z,3820.00
2018-06-06T13:03:39.160Z,3812.00
2018-06-06T13:05:32.110Z,3956.00
2018-06-06T13:06:32.117Z,3936.00
2018-06-06T13:08:25.104Z,3896.00
2018-06-06T13:09:25.137Z,3880.00
2018-06-06T13:11:18.180Z,3832.00
2018-06-06T13:12:18.191Z,3808.00
2018-06-06T13:14:11.231Z,3792.00
2018-06-06T13:15:11.250Z,3796.00
2018-06-06T13:17:04.296Z,3828.00
2018-06-06T13:18:04.312Z,3852.00
2018-06-06T13:19:57.358Z,3936.00
2018-06-06T13:20:57.364Z,4024.00
2018-06-06T13:22:51.514Z,4104.00
2018-06-06T13:23:51.187Z,4292.00
2018-06-06T13:25:44.102Z,4992.00
2018-06-06T13:26:44.205Z,4828.00
2018-06-06T13:28:38.503Z,4728.00
2018-06-06T13:29:37.119Z,4400.00
2018-06-06T13:31:30.255Z,4144.00
2018-06-06T13:32:30.214Z,4212.00
2018-06-06T13:34:23.384Z,4156.00
2018-06-06T13:35:23.408Z,4404.00
2018-06-06T13:37:16.357Z,4696.00
2018-06-06T13:38:16.364Z,4720.00
2018-06-06T13:40:09.355Z,4944.00
2018-06-06T13:41:09.347Z,5200.00
2018-06-06T13:43:02.288Z,5764.00
2018-06-06T13:44:02.292Z,6180.00
2018-06-06T13:45:55.377Z,6900.00
2018-06-06T13:46:55.406Z,6640.00
2018-06-06T13:48:48.424Z,6056.00
2018-06-06T13:49:48.439Z,5720.00
2018-06-06T13:51:41.504Z,5524.00
2018-06-06T13:52:41.496Z,4820.00
2018-06-06T13:54:34.534Z,3840.00
2018-06-06T13:55:34.553Z,3764.00
2018-06-06T13:57:28.128Z,3804.00
2018-06-06T13:58:28.122Z,3832.00
2018-06-06T14:00:21.142Z,3956.00
2018-06-06T14:01:21.176Z,4068.00
2018-06-06T14:03:14.217Z,4184.00
2018-06-06T14:04:14.233Z,4220.00
2018-06-06T14:06:07.291Z,4280.00
2018-06-06T14:07:07.291Z,4300.00
2018-06-06T14:09:00.332Z,4256.00
2018-06-06T14:10:00.873Z,4112.00
2018-06-06T14:11:53.478Z,3832.00
2018-06-06T14:12:53.406Z,3720.00
2018-06-06T14:14:46.447Z,3772.00
2018-06-06T14:15:46.457Z,3828.00
2018-06-06T14:17:39.502Z,3604.00
2018-06-06T14:18:39.512Z,3600.00
2018-06-06T14:20:32.538Z,3792.00
2018-06-06T14:21:32.569Z,3812.00
2018-06-06T14:23:25.619Z,3880.00
2018-06-06T14:24:25.626Z,3928.00
2018-06-06T14:26:18.650Z,3936.00
2018-06-06T14:27:18.682Z,3948.00
2018-06-06T14:29:11.756Z,3948.00
2018-06-06T14:30:11.738Z,3924.00
2018-06-06T14:32:09.851Z,3940.00
2018-06-06T14:33:09.856Z,3868.00
2018-06-06T14:35:02.859Z,3880.00
2018-06-06T14:36:02.872Z,3852.00
2018-06-06T14:37:55.894Z,3832.00
2018-06-06T14:38:55.927Z,3844.00
2018-06-06T14:40:49.391Z,3832.00
2018-06-06T14:41:49.392Z,3820.00
2018-06-06T14:43:42.437Z,3840.00
2018-06-06T14:44:42.449Z,3880.00
2018-06-06T14:46:35.497Z,3988.00
2018-06-06T14:47:35.505Z,3988.00
2018-06-06T14:49:28.570Z,3948.00
2018-06-06T14:50:28.562Z,3948.00
2018-06-06T14:52:23.202Z,3984.00
2018-06-06T14:53:23.052Z,4036.00
2018-06-06T14:55:16.508Z,4080.00
2018-06-06T14:56:16.518Z,4140.00
2018-06-06T14:58:09.542Z,4056.00
2018-06-06T14:59:09.576Z,3996.00
2018-06-06T15:01:03.027Z,3900.00
2018-06-06T15:02:03.039Z,3868.00
2018-06-06T15:03:56.492Z,3896.00
2018-06-06T15:04:56.506Z,3904.00
2018-06-06T15:06:50.043Z,3844.00
2018-06-06T15:07:50.075Z,3828.00
2018-06-06T15:09:43.527Z,3856.00
2018-06-06T15:10:43.542Z,3884.00
2018-06-06T15:12:36.572Z,3952.00
2018-06-06T15:13:36.600Z,3968.00
2018-06-06T15:15:34.556Z,4012.00
2018-06-06T15:16:34.568Z,4044.00
2018-06-06T15:18:27.593Z,4072.00
2018-06-06T15:19:27.625Z,4056.00
2018-06-06T15:21:20.581Z,4056.00
2018-06-06T15:22:20.586Z,4036.00
2018-06-06T15:24:13.536Z,3864.00
2018-06-06T15:25:13.546Z,3940.00
2018-06-06T15:27:06.475Z,4036.00
2018-06-06T15:28:06.508Z,4052.00
2018-06-06T15:29:59.459Z,4076.00
2018-06-06T15:30:59.469Z,4080.00
2018-06-06T15:32:53.895Z,4064.00
2018-06-06T15:33:53.922Z,4056.00
2018-06-06T15:35:46.880Z,4064.00
2018-06-06T15:36:46.888Z,4076.00
2018-06-06T15:38:39.877Z,4072.00
2018-06-06T15:39:39.849Z,4076.00
2018-06-06T15:41:32.804Z,4104.00
2018-06-06T15:42:32.816Z,4116.00
2018-06-06T15:44:25.774Z,4096.00
2018-06-06T15:45:25.778Z,4088.00
2018-06-06T15:47:18.704Z,4100.00
2018-06-06T15:48:18.739Z,4112.00
2018-06-06T15:50:11.689Z,4108.00
2018-06-06T15:51:11.698Z,4100.00
2018-06-06T15:53:04.640Z,4096.00
2018-06-06T15:54:04.663Z,4096.00
2018-06-06T15:55:57.655Z,4072.00
2018-06-06T15:56:57.624Z,4060.00
2018-06-06T15:58:50.551Z,4008.00
2018-06-06T15:59:50.584Z,4000.00
2018-06-06T16:01:43.534Z,4004.00
2018-06-06T16:02:43.544Z,4020.00
2018-06-06T16:04:36.498Z,4020.00
2018-06-06T16:05:36.531Z,4008.00
2018-06-06T16:07:29.576Z,3976.00
2018-06-06T16:08:29.643Z,3968.00
2018-06-06T16:10:23.049Z,3932.00
2018-06-06T16:11:23.053Z,3916.00
2018-06-06T16:13:16.079Z,3896.00
2018-06-06T16:14:16.112Z,3884.00
2018-06-06T16:16:09.152Z,3872.00
2018-06-06T16:17:09.171Z,3860.00
2018-06-06T16:19:02.189Z,3820.00
2018-06-06T16:20:02.223Z,3812.00
2018-06-06T16:21:55.270Z,3792.00
2018-06-06T16:22:55.279Z,3776.00
2018-06-06T16:24:49.252Z,3748.00
2018-06-06T16:25:49.307Z,3732.00
2018-06-06T16:27:44.762Z,3708.00
2018-06-06T16:28:44.772Z,3708.00
2018-06-06T16:30:38.329Z,3700.00
2018-06-06T16:31:38.347Z,3700.00
2018-06-06T16:33:33.847Z,3700.00
2018-06-06T16:34:33.852Z,3696.00
2018-06-06T16:36:26.898Z,3700.00
2018-06-06T16:37:26.910Z,3692.00
2018-06-06T16:39:22.917Z,3700.00
2018-06-06T16:40:22.937Z,3700.00
2018-06-06T16:42:15.991Z,3688.00
2018-06-06T16:43:15.995Z,3684.00
2018-06-06T16:45:09.432Z,3676.00
2018-06-06T16:46:09.460Z,3668.00
2018-06-06T16:48:02.507Z,3648.00
2018-06-06T16:49:02.538Z,3632.00
2018-06-06T16:50:55.572Z,3588.00
2018-06-06T16:51:55.580Z,3568.00
2018-06-06T16:53:48.600Z,3532.00
2018-06-06T16:54:48.628Z,3520.00
2018-06-06T16:56:42.096Z,3504.00
2018-06-06T16:57:42.097Z,3496.00
2018-06-06T16:59:35.120Z,3476.00
2018-06-06T17:00:35.150Z,3468.00
2018-06-06T17:02:28.195Z,3440.00
2018-06-06T17:03:28.207Z,3428.00
2018-06-06T17:05:21.231Z,3400.00
2018-06-06T17:06:21.263Z,3388.00
2018-06-06T17:08:14.307Z,3364.00
2018-06-06T17:09:14.320Z,3356.00
2018-06-06T17:11:07.346Z,3352.00
2018-06-06T17:12:07.399Z,3344.00
2018-06-06T17:14:00.423Z,3332.00
2018-06-06T17:15:00.432Z,3316.00
2018-06-06T17:16:53.479Z,3296.00
2018-06-06T17:17:53.493Z,3288.00
2018-06-06T17:19:46.528Z,3264.00
2018-06-06T17:20:46.557Z,3252.00
2018-06-06T17:22:40.101Z,3232.00
2018-06-06T17:23:40.113Z,3220.00
2018-06-06T17:25:33.139Z,3200.00
2018-06-06T17:26:33.170Z,3192.00
2018-06-06T17:28:26.744Z,3160.00
2018-06-06T17:29:26.741Z,3148.00
2018-06-06T17:31:19.790Z,3124.00
2018-06-06T17:32:19.799Z,3112.00
2018-06-06T17:34:12.840Z,3104.00
2018-06-06T17:35:12.856Z,3116.00
2018-06-06T17:37:05.895Z,3196.00
2018-06-06T17:38:05.915Z,3264.00
2018-06-06T17:39:58.931Z,3524.00